Flight Track Log - Related Links

Times and Time Zones

All times are in EDT time to prevent confusion due to time zone crossing. See the N287KB flight status page for this flight to view local times or setup timezone preferences in your user account.

Time Position Orientation Groundspeed Altitude Reporting Facility
EDT Latitude Longitude Course Direction KTS MPH feet Rate Location/Type
Sat 12:55:30 PM 44.5033 -109.0586 231° Southwest 189 217 6,100  Level Salt Lake Center
Sat 12:56:00 PM 44.1553 -109.7062 235° Southwest  Level FlightAware Approximate
Sat 12:56:32 PM 44.4511 -109.0689 188° South 225 259 8,100  Level Salt Lake Center
Sat 12:57:00 PM 44.0970 -109.8229 235° Southwest  Level FlightAware Approximate
Sat 12:57:34 PM 44.3889 -109.1069 204° Southwest 237 273 9,500  Level Salt Lake Center
Sat 12:58:00 PM 44.0372 -109.9382 233° Southwest  Level FlightAware Approximate
Sat 12:58:36 PM 44.3169 -109.1514 204° Southwest 258 297 12,000  Level Salt Lake Center
Sat 12:59:00 PM 43.9760 -110.0518 233° Southwest  Level FlightAware Approximate
Sat 12:59:38 PM 44.2406 -109.2153 211° Southwest 294 338 13,100  Level Salt Lake Center
Sat 01:00:00 PM 43.9131 -110.1634 231° Southwest  Level FlightAware Approximate
Sat 01:00:40 PM 44.1369 -109.2597 197° South 356 410 14,900  Level Salt Lake Center
Sat 01:01:42 PM 44.0197 -109.3153 199° South 375 432 18,500 2,758 Climbing Salt Lake Center
Sat 01:02:44 PM 43.9472 -109.4003 220° Southwest 350 403 20,600 1,500 Climbing Salt Lake Center
Sat 01:03:46 PM 43.8956 -109.5286 241° Southwest 356 410 21,600 1,113 Climbing Salt Lake Center
Sat 01:04:48 PM 43.8533 -109.6586 246° West 382 440 22,900 1,355 Climbing Salt Lake Center
Sat 01:05:50 PM 43.8125 -109.7900 247° West 389 448 24,400 1,306 Climbing Salt Lake Center
Sat 01:06:52 PM 43.7628 -109.9492 247° West 399 459 25,600 1,258 Climbing Salt Lake Center
Sat 01:07:54 PM 43.7186 -110.0875 246° West 409 471 27,000 1,258 Climbing Salt Lake Center
Sat 01:08:56 PM 43.6692 -110.2453 247° West 403 464 28,200 1,306 Climbing Salt Lake Center
Sat 01:09:58 PM 43.6250 -110.3822 246° West 406 467 29,700 1,355 Climbing Salt Lake Center
Sat 01:11:00 PM 43.5761 -110.5375 247° West 395 455 31,000 1,065 Climbing Salt Lake Center
Sat 01:12:02 PM 43.5325 -110.6686 245° Southwest 394 453 31,900 871 Climbing Salt Lake Center
Sat 01:13:04 PM 43.4822 -110.8217 246° West 394 453 32,800 585 Climbing Salt Lake Center
Sat 01:14:05 PM 43.4411 -110.9528 247° West 389 448 33,100 293 Climbing Salt Lake Center
Sat 01:15:07 PM 43.3978 -111.0853 246° West 394 453 33,400 435 Climbing Salt Lake Center
Sat 01:16:09 PM 43.3483 -111.2392 246° West 394 453 34,000 290 Climbing Salt Lake Center
Sat 01:17:11 PM 43.3139 -111.3772 251° West 397 457 34,000  Level Salt Lake Center
Sat 01:18:13 PM 43.2686 -111.5322 248° West 394 453 34,000  Level Salt Lake Center
Sat 01:19:15 PM 43.2228 -111.6592 244° Southwest 391 450 34,000  Level Salt Lake Center
Sat 01:20:17 PM 43.1706 -111.8089 244° Southwest 389 448 34,000  Level Salt Lake Center
Sat 01:21:19 PM 43.1247 -111.9356 244° Southwest 388 447 34,000  Level Salt Lake Center
Sat 01:22:21 PM 43.0719 -112.0883 245° Southwest 393 452 34,000  Level Salt Lake Center
Sat 01:23:23 PM 43.0264 -112.2189 245° Southwest 398 458 34,000  Level Salt Lake Center
Sat 01:24:25 PM 42.9800 -112.3489 244° Southwest 396 456 34,000  Level Salt Lake Center
Sat 01:25:27 PM 42.9261 -112.4978 244° Southwest 393 452 34,000  Level Salt Lake Center
Sat 01:26:29 PM 42.8803 -112.6261 244° Southwest 394 453 34,000  Level Salt Lake Center
Sat 01:27:31 PM 42.8142 -112.7636 237° Southwest 387 445 34,000  Level Salt Lake Center
Sat 01:28:33 PM 42.7550 -112.8789 235° Southwest 388 447 34,000  Level Salt Lake Center
Sat 01:29:35 PM 42.6875 -113.0133 236° Southwest 385 443 34,000  Level Salt Lake Center
Sat 01:30:37 PM 42.6258 -113.1325 235° Southwest 390 449 34,000  Level Salt Lake Center
Sat 01:31:39 PM 42.5650 -113.2511 235° Southwest 387 445 34,000  Level Salt Lake Center
Sat 01:32:41 PM 42.5042 -113.3706 235° Southwest 387 445 34,000  Level Salt Lake Center
Sat 01:33:43 PM 42.4425 -113.4906 235° Southwest 387 445 34,000  Level Salt Lake Center
Sat 01:34:45 PM 42.3669 -113.6358 235° Southwest 393 452 34,000  Level Salt Lake Center
Sat 01:35:47 PM 42.3047 -113.7556 235° Southwest 391 450 34,000  Level Salt Lake Center
Sat 01:36:49 PM 42.2422 -113.8756 235° Southwest 391 450 34,000  Level Salt Lake Center
Sat 01:37:51 PM 42.1792 -113.9964 235° Southwest 395 455 34,000  Level Salt Lake Center
Sat 01:38:53 PM 42.1164 -114.1175 235° Southwest 396 456 34,000  Level Salt Lake Center
Sat 01:39:55 PM 42.0519 -114.2356 234° Southwest 394 453 34,000  Level Salt Lake Center
Sat 01:40:57 PM 41.9781 -114.3772 235° Southwest 389 448 34,000  Level Salt Lake Center
Sat 01:41:59 PM 41.9139 -114.4986 235° Southwest 395 455 34,000  Level Salt Lake Center
Sat 01:43:01 PM 41.8439 -114.6317 235° Southwest 399 459 34,000  Level Salt Lake Center
Sat 01:44:03 PM 41.7814 -114.7442 233° Southwest 395 455 34,000  Level Salt Lake Center
Sat 01:45:05 PM 41.7192 -114.8586 234° Southwest 395 455 34,000  Level Salt Lake Center
Sat 01:46:07 PM 41.6481 -114.9933 235° Southwest 396 456 34,000  Level Salt Lake Center
Sat 01:47:09 PM 41.5853 -115.1067 234° Southwest 398 458 34,000  Level Salt Lake Center
Sat 01:48:11 PM 41.5128 -115.2394 234° Southwest 397 457 34,000  Level Salt Lake Center
Sat 01:49:13 PM 41.4503 -115.3539 234° Southwest 397 457 34,000  Level Salt Lake Center
Sat 01:50:15 PM 41.3778 -115.4872 234° Southwest 398 458 34,000  Level Salt Lake Center
Sat 01:51:17 PM 41.3142 -115.5994 233° Southwest 397 457 34,000  Level Salt Lake Center
Sat 01:52:19 PM 41.2417 -115.7336 234° Southwest 399 459 34,000  Level Salt Lake Center
Sat 01:53:21 PM 41.1783 -115.8453 233° Southwest 397 457 34,000  Level Salt Lake Center
Sat 01:54:23 PM 41.1050 -115.9772 234° Southwest 397 457 34,000  Level Salt Lake Center
Sat 01:55:25 PM 41.0431 -116.0897 234° Southwest 397 457 34,000  Level Salt Lake Center
Sat 01:56:27 PM 40.9689 -116.2214 233° Southwest 398 458 34,000  Level Salt Lake Center
Sat 01:57:30 PM 40.9058 -116.3353 234° Southwest 401 461 34,000  Level Salt Lake Center
Sat 01:58:32 PM 40.8300 -116.4667 233° Southwest 402 463 34,000  Level Salt Lake Center
Sat 01:59:34 PM 40.7661 -116.5789 233° Southwest 401 461 34,000  Level Salt Lake Center
Sat 02:00:36 PM 40.7014 -116.6919 233° Southwest 403 464 34,000  Level Salt Lake Center
Sat 02:01:38 PM 40.6272 -116.8222 233° Southwest 401 461 34,000  Level Salt Lake Center
Sat 02:02:40 PM 40.5567 -116.9556 235° Southwest 402 463 34,000  Level Salt Lake Center
Sat 02:03:42 PM 40.4889 -117.0608 230° Southwest 401 461 34,000  Level Salt Lake Center
Sat 02:04:44 PM 40.4100 -117.1878 231° Southwest 404 465 34,000  Level Salt Lake Center
Sat 02:05:46 PM 40.3422 -117.2947 230° Southwest 401 461 34,000  Level Salt Lake Center
Sat 02:06:48 PM 40.2639 -117.4222 231° Southwest 402 463 34,000  Level Salt Lake Center
Sat 02:07:50 PM 40.1958 -117.5303 231° Southwest 402 463 34,000  Level Salt Lake Center
Sat 02:08:52 PM 40.1175 -117.6575 231° Southwest 401 461 34,000  Level Salt Lake Center
Sat 02:09:30 PM 40.0783 -117.7203 231° Southwest 403 464 34,000  Level Oakland Center
Sat 02:10:31 PM 40.0086 -117.8336 231° Southwest 401 461 34,000  Level Oakland Center
Sat 02:11:33 PM 39.9386 -117.9456 231° Southwest 400 460 34,000  Level Oakland Center
Sat 02:12:35 PM 39.8669 -118.0578 230° Southwest 400 460 34,000  Level Oakland Center
Sat 02:13:36 PM 39.7964 -118.1706 231° Southwest 402 463 34,000  Level Oakland Center
Sat 02:14:38 PM 39.7119 -118.3042 231° Southwest 400 460 34,000  Level Oakland Center
Sat 02:15:39 PM 39.6403 -118.4153 230° Southwest 400 460 34,000  Level Oakland Center
Sat 02:16:41 PM 39.5694 -118.5261 230° Southwest 399 459 34,000  Level Oakland Center
Sat 02:17:43 PM 39.4989 -118.6364 230° Southwest 399 459 34,000 -488 Level Oakland Center
Sat 02:18:44 PM 39.4211 -118.7556 230° Southwest 419 482 33,000 -1,220 Descending Oakland Center
Sat 02:19:46 PM 39.3481 -118.8708 231° Southwest 420 483 31,500 -1,268 Descending Oakland Center
Sat 02:20:47 PM 39.2719 -118.9878 230° Southwest 424 488 30,400 -732 Descending Oakland Center
Sat 02:21:49 PM 39.1869 -119.1167 230° Southwest 432 497 30,000 -194 Descending Oakland Center
Sat 02:22:51 PM 39.1097 -119.2344 230° Southwest 431 496 30,000  Level Oakland Center
Sat 02:23:52 PM 39.0333 -119.3525 230° Southwest 430 495 30,000  Level Oakland Center
Sat 02:24:54 PM 38.9542 -119.4697 229° Southwest 434 499 30,000  Level Oakland Center
Sat 02:25:56 PM 38.8617 -119.6100 230° Southwest 431 496 30,000 -732 Level Oakland Center
Sat 02:26:57 PM 38.7847 -119.7281 230° Southwest 434 499 28,500 -1,756 Descending Oakland Center
Sat 02:27:59 PM 38.7072 -119.8442 229° Southwest 444 511 26,400 -2,129 Descending Oakland Center
Sat 02:29:01 PM 38.6283 -119.9644 230° Southwest 441 507 24,100 -2,244 Descending Oakland Center
Sat 02:30:02 PM 38.5483 -120.0819 229° Southwest 439 505 21,800 -2,146 Descending Oakland Center
Sat 02:31:04 PM 38.4692 -120.1961 228° Southwest 430 495 19,700 -2,000 Descending Oakland Center
Sat 02:32:05 PM 38.3936 -120.3106 230° Southwest 423 487 17,700 -1,854 Descending Oakland Center
Sat 02:33:07 PM 38.3206 -120.4183 229° Southwest 408 470 15,900 -1,935 Descending Oakland Center
Sat 02:34:09 PM 38.2342 -120.5444 229° Southwest 395 455 13,700 -1,805 Descending Oakland Center
Sat 02:35:10 PM 38.1636 -120.6492 229° Southwest 391 450 12,200 -1,317 Descending Oakland Center
Sat 02:36:12 PM 38.0986 -120.7436 229° Southwest 370 426 11,000 -1,161 Descending Oakland Center
Sat 02:37:14 PM 38.0419 -120.8267 229° Southwest 333 383 9,800 -1,220 Descending Oakland Center
Sat 02:38:15 PM 37.9889 -120.9036 229° Southwest 306 352 8,500 -1,463 Descending Oakland Center
Sat 02:39:17 PM 37.9378 -120.9772 229° Southwest 293 337 6,800 -1,659 Descending Oakland Center
Sat 02:40:18 PM 37.8808 -121.0375 220° Southwest 280 322 5,100 -1,512 Descending Oakland Center
Sat 02:41:20 PM 37.8381 -121.1003 229° Southwest 252 290 3,700 -1,752 Descending Oakland Center
Sat 02:42:11 PM 37.8500 -121.1667 283° West 197 227 1,800 -1,868 Descending Northern Cal TRACON
Sat 02:43:06 PM 37.8833 -121.2167 310° West 169 194 400 -1,527 Descending Northern Cal TRACON
Sat 02:45:00 PM 37.8833 -121.2333 299° West  Level FlightAware Approximate
Sat 02:52:00 PM 37.8942 -121.2383 299° West  Level Estimated

Login

Don't have an account? Register now (free) for customized features, flight alerts, and more!